createdAt,value
2022-12-18T00:02:07.366Z,99332.28
2022-12-18T00:06:10.169Z,99332.50
2022-12-18T00:10:15.284Z,99340.63
2022-12-18T00:14:18.077Z,99351.16
2022-12-18T00:18:20.844Z,99364.94
2022-12-18T00:22:23.357Z,99366.34
2022-12-18T00:26:37.137Z,99370.16
2022-12-18T00:30:40.954Z,99376.47
2022-12-18T00:34:44.060Z,99382.34
2022-12-18T00:38:47.520Z,99389.06
2022-12-18T00:42:59.260Z,99396.78
2022-12-18T00:47:01.572Z,99395.44
2022-12-18T00:51:04.244Z,99401.59
2022-12-18T00:55:07.042Z,99423.94
2022-12-18T00:59:09.945Z,99424.38
2022-12-18T01:03:15.484Z,99441.44
2022-12-18T01:07:19.486Z,99440.59
2022-12-18T01:11:22.569Z,99447.50
2022-12-18T01:15:24.925Z,99450.38
2022-12-18T01:19:27.305Z,99453.41
2022-12-18T01:23:30.426Z,99455.66
2022-12-18T01:27:34.738Z,99458.69
2022-12-18T01:31:39.498Z,99470.47
2022-12-18T01:35:43.742Z,99471.09
2022-12-18T01:39:45.920Z,99479.97
2022-12-18T01:43:59.310Z,99473.06
2022-12-18T01:48:08.696Z,99484.66
2022-12-18T01:52:10.863Z,99493.81
2022-12-18T01:56:23.161Z,99484.28
2022-12-18T02:00:29.065Z,99488.31
2022-12-18T02:04:32.193Z,99486.47
2022-12-18T02:08:47.510Z,99483.63
2022-12-18T02:12:58.093Z,99481.00
2022-12-18T02:17:48.397Z,99492.94
2022-12-18T02:22:19.513Z,99489.88
2022-12-18T02:26:35.805Z,99506.91
2022-12-18T02:30:40.215Z,99498.00
2022-12-18T02:34:47.324Z,99504.91
2022-12-18T02:38:54.617Z,99516.50
2022-12-18T02:43:13.811Z,99510.03
2022-12-18T02:47:20.651Z,99514.91
2022-12-18T02:51:35.344Z,99528.69
2022-12-18T02:55:37.723Z,99513.09
2022-12-18T02:59:57.204Z,99517.16
2022-12-18T03:04:09.103Z,99512.47
2022-12-18T03:08:32.698Z,99496.44
2022-12-18T03:12:52.849Z,99500.47
2022-12-18T03:17:02.048Z,99525.03
2022-12-18T03:21:07.851Z,99527.88
2022-12-18T03:25:15.309Z,99528.44
2022-12-18T03:29:23.955Z,99524.75
2022-12-18T03:33:39.479Z,99527.00
2022-12-18T03:37:42.123Z,99533.91
2022-12-18T03:41:46.613Z,99549.13
2022-12-18T03:46:28.695Z,99548.53
2022-12-18T03:50:43.104Z,99537.56
2022-12-18T03:54:47.430Z,99554.25
2022-12-18T03:58:54.475Z,99555.94
2022-12-18T04:03:02.976Z,99553.56
2022-12-18T04:07:12.117Z,99560.44
2022-12-18T04:11:14.785Z,99563.31
2022-12-18T04:15:17.342Z,99564.13
2022-12-18T04:19:19.950Z,99573.66
2022-12-18T04:23:25.236Z,99571.88
2022-12-18T04:27:29.607Z,99591.56
2022-12-18T04:31:35.113Z,99595.00
2022-12-18T04:35:38.706Z,99597.19
2022-12-18T04:39:40.853Z,99599.81
2022-12-18T04:43:50.182Z,99599.97
2022-12-18T04:47:52.285Z,99611.28
2022-12-18T04:51:55.253Z,99617.59
2022-12-18T04:56:13.758Z,99618.53
2022-12-18T05:00:17.848Z,99626.22
2022-12-18T05:04:20.300Z,99628.00
2022-12-18T05:08:23.065Z,99632.06
2022-12-18T05:12:25.516Z,99630.63
2022-12-18T05:16:27.781Z,99633.25
2022-12-18T05:20:30.039Z,99638.97
2022-12-18T05:24:32.142Z,99654.16
2022-12-18T05:28:36.435Z,99659.47
2022-12-18T05:32:39.275Z,99659.03
2022-12-18T05:36:41.526Z,99670.59
2022-12-18T05:40:44.712Z,99680.13
2022-12-18T05:44:46.911Z,99683.69
2022-12-18T05:48:51.350Z,99684.50
2022-12-18T05:52:53.505Z,99691.78
2022-12-18T05:56:55.778Z,99701.31
2022-12-18T06:00:58.333Z,99694.16
2022-12-18T06:05:00.384Z,99702.44
2022-12-18T06:09:02.510Z,99712.84
2022-12-18T06:13:05.351Z,99722.94
2022-12-18T06:17:07.760Z,99728.00
2022-12-18T06:21:10.095Z,99722.66
2022-12-18T06:25:12.976Z,99741.88
2022-12-18T06:29:16.047Z,99730.69
2022-12-18T06:33:18.203Z,99725.31
2022-12-18T06:37:20.728Z,99736.47
2022-12-18T06:41:23.272Z,99737.63
2022-12-18T06:45:25.558Z,99735.31
2022-12-18T06:49:30.560Z,99749.31
2022-12-18T06:53:33.454Z,99756.97
2022-12-18T06:57:35.601Z,99749.63
2022-12-18T07:01:39.540Z,99764.38
2022-12-18T07:05:42.923Z,99783.84
2022-12-18T07:09:44.973Z,99790.94
2022-12-18T07:13:47.730Z,99797.25
2022-12-18T07:17:49.834Z,99800.09
2022-12-18T07:21:52.641Z,99818.72
2022-12-18T07:25:54.822Z,99822.72
2022-12-18T07:29:57.073Z,99834.84
2022-12-18T07:34:26.167Z,99842.66
2022-12-18T07:38:29.532Z,99850.84
2022-12-18T07:42:32.057Z,99852.44
2022-12-18T07:46:34.139Z,99856.47
2022-12-18T07:50:36.379Z,99863.69
2022-12-18T07:54:39.661Z,99861.53
2022-12-18T07:58:41.987Z,99875.84
2022-12-18T08:02:44.307Z,99873.28
2022-12-18T08:06:48.170Z,99883.72
2022-12-18T08:10:50.685Z,99881.72
2022-12-18T08:14:52.977Z,99893.97
2022-12-18T08:18:55.734Z,99896.00
2022-12-18T08:22:59.137Z,99892.97
2022-12-18T08:31:24.609Z,99898.66
2022-12-18T08:35:29.526Z,99894.38
2022-12-18T08:39:33.857Z,99891.53
2022-12-18T08:43:54.872Z,99898.63
2022-12-18T08:47:57.167Z,99900.63
2022-12-18T08:51:59.344Z,99906.94
2022-12-18T08:56:01.499Z,99899.53
2022-12-18T09:00:05.217Z,99901.56
2022-12-18T09:04:07.961Z,99898.00
2022-12-18T09:08:10.557Z,99904.47
2022-12-18T09:12:12.796Z,99919.28
2022-12-18T09:16:15.546Z,99919.63
2022-12-18T09:20:18.015Z,99909.59
2022-12-18T09:24:20.664Z,99912.97
2022-12-18T09:28:22.747Z,99918.03
2022-12-18T09:32:25.051Z,99927.09
2022-12-18T09:36:27.817Z,99921.28
2022-12-18T09:40:36.202Z,99921.41
2022-12-18T09:44:45.639Z,99922.75
2022-12-18T09:48:52.347Z,99918.13
2022-12-18T09:52:57.865Z,99922.06
2022-12-18T09:57:00.100Z,99919.69
2022-12-18T10:01:11.893Z,99926.25
2022-12-18T10:05:31.584Z,99923.53
2022-12-18T10:09:38.085Z,99917.50
2022-12-18T10:14:29.251Z,99910.47
2022-12-18T10:19:19.442Z,99919.50
2022-12-18T10:23:48.327Z,99915.97
2022-12-18T10:27:56.532Z,99913.91
2022-12-18T10:31:58.698Z,99908.34
2022-12-18T10:36:01.341Z,99899.31
2022-12-18T10:40:18.205Z,99889.47
2022-12-18T10:44:25.448Z,99891.88
2022-12-18T10:48:36.210Z,99886.00
2022-12-18T10:52:45.088Z,99883.56
2022-12-18T10:56:50.029Z,99879.19
2022-12-18T11:01:13.544Z,99870.94
2022-12-18T11:05:38.085Z,99863.19
2022-12-18T11:09:41.498Z,99854.81
2022-12-18T11:14:01.937Z,99856.22
2022-12-18T11:23:24.686Z,99846.91
2022-12-18T11:27:29.429Z,99845.19
2022-12-18T11:31:34.540Z,99846.56
2022-12-18T11:35:54.979Z,99842.03
2022-12-18T11:40:02.355Z,99852.56
2022-12-18T11:44:09.128Z,99842.00
2022-12-18T11:48:22.739Z,99833.19
2022-12-18T11:52:50.405Z,99848.72
2022-12-18T11:57:15.444Z,99838.38
2022-12-18T12:01:51.966Z,99840.66
2022-12-18T12:06:15.689Z,99845.88
2022-12-18T12:10:40.659Z,99837.28
2022-12-18T12:15:37.223Z,99839.84
2022-12-18T12:19:44.763Z,99835.75
2022-12-18T12:23:56.251Z,99830.75
2022-12-18T12:28:50.289Z,99836.75
2022-12-18T12:33:03.980Z,99842.19
2022-12-18T12:37:21.353Z,99844.53
2022-12-18T12:41:46.134Z,99838.47
2022-12-18T12:52:46.142Z,99846.88
2022-12-18T12:57:07.486Z,99846.59
2022-12-18T13:01:42.839Z,99844.81
2022-12-18T13:05:55.899Z,99846.25
2022-12-18T13:10:27.196Z,99848.84
2022-12-18T13:14:35.733Z,99846.19
2022-12-18T13:18:38.158Z,99852.00
2022-12-18T13:22:49.504Z,99853.03
2022-12-18T13:26:51.763Z,99860.59
2022-12-18T13:30:58.522Z,99855.81
2022-12-18T13:35:27.520Z,99851.41
2022-12-18T13:39:35.860Z,99845.28
2022-12-18T13:43:46.242Z,99844.09
2022-12-18T13:47:49.071Z,99844.88
2022-12-18T13:51:55.079Z,99849.75
2022-12-18T13:55:58.107Z,99851.09
2022-12-18T14:00:25.781Z,99866.78
2022-12-18T14:04:30.634Z,99863.56
2022-12-18T14:08:42.627Z,99872.59
2022-12-18T14:13:01.140Z,99872.19
2022-12-18T14:17:11.292Z,99877.97
2022-12-18T14:21:35.550Z,99884.75
2022-12-18T14:25:37.820Z,99883.81
2022-12-18T14:29:45.267Z,99886.94
2022-12-18T14:33:47.786Z,99889.75
2022-12-18T14:37:49.874Z,99885.00
2022-12-18T14:41:53.724Z,99889.88
2022-12-18T14:45:57.360Z,99891.91
2022-12-18T14:49:59.700Z,99885.88
2022-12-18T14:54:16.152Z,99892.03
2022-12-18T14:58:19.359Z,99899.78
2022-12-18T15:02:27.988Z,99900.34
2022-12-18T15:06:36.306Z,99897.59
2022-12-18T15:10:48.834Z,99892.59
2022-12-18T15:14:53.246Z,99888.78
2022-12-18T15:18:58.122Z,99892.31
2022-12-18T15:23:00.384Z,99901.56
2022-12-18T15:27:02.668Z,99903.69
2022-12-18T15:31:25.118Z,99908.91
2022-12-18T15:35:27.313Z,99908.75
2022-12-18T15:39:29.408Z,99917.94
2022-12-18T15:43:37.985Z,99918.50
2022-12-18T15:47:40.535Z,99923.97
2022-12-18T15:51:43.007Z,99915.13
2022-12-18T15:56:03.826Z,99926.31
2022-12-18T16:00:07.139Z,99924.34
2022-12-18T16:04:14.261Z,99935.50
2022-12-18T16:08:17.478Z,99935.19
2022-12-18T16:12:23.625Z,99939.56
2022-12-18T16:16:26.045Z,99952.31
2022-12-18T16:20:29.640Z,99955.44
2022-12-18T16:24:34.589Z,99963.47
2022-12-18T16:28:36.864Z,99962.66
2022-12-18T16:32:39.484Z,99964.28
2022-12-18T16:36:42.009Z,99963.72
2022-12-18T16:41:04.194Z,99965.53
2022-12-18T16:45:10.790Z,99972.16
2022-12-18T16:49:14.555Z,99971.00
2022-12-18T16:53:16.697Z,99977.53
2022-12-18T16:57:21.607Z,99970.84
2022-12-18T17:01:32.291Z,99975.38
2022-12-18T17:05:34.530Z,99981.03
2022-12-18T17:09:37.865Z,99984.97
2022-12-18T17:13:40.483Z,99980.69
2022-12-18T17:17:43.240Z,99983.53
2022-12-18T17:21:52.072Z,99988.84
2022-12-18T17:26:02.082Z,99991.47
2022-12-18T17:30:05.446Z,100001.69
2022-12-18T17:34:08.058Z,100002.31
2022-12-18T17:38:10.579Z,100011.72
2022-12-18T17:42:15.347Z,100023.94
2022-12-18T17:46:18.036Z,100028.81
2022-12-18T17:50:20.500Z,100029.22
2022-12-18T17:54:22.707Z,100026.16
2022-12-18T17:58:25.378Z,100024.72
2022-12-18T18:02:27.758Z,100043.06
2022-12-18T18:06:30.596Z,100044.72
2022-12-18T18:10:38.748Z,100054.75
2022-12-18T18:14:40.894Z,100065.53
2022-12-18T18:18:43.292Z,100065.94
2022-12-18T18:22:45.712Z,100069.59
2022-12-18T18:26:48.027Z,100073.66
2022-12-18T18:30:50.108Z,100081.97
2022-12-18T18:34:52.570Z,100081.97
2022-12-18T18:38:55.399Z,100094.19
2022-12-18T18:42:58.902Z,100081.31
2022-12-18T18:47:02.166Z,100082.13
2022-12-18T18:51:09.267Z,100086.59
2022-12-18T18:55:19.496Z,100085.81
2022-12-18T18:59:31.933Z,100091.38
2022-12-18T19:03:35.698Z,100088.09
2022-12-18T19:07:37.897Z,100093.88
2022-12-18T19:12:18.300Z,100091.63
2022-12-18T19:16:21.433Z,100105.31
2022-12-18T19:20:26.086Z,100107.50
2022-12-18T19:24:29.041Z,100111.72
2022-12-18T19:28:31.344Z,100115.09
2022-12-18T19:32:34.320Z,100108.13
2022-12-18T19:36:38.497Z,100109.53
2022-12-18T19:40:41.792Z,100111.78
2022-12-18T19:44:43.926Z,100110.34
2022-12-18T19:48:47.782Z,100113.38
2022-12-18T19:52:50.110Z,100126.63
2022-12-18T19:56:53.988Z,100124.47
2022-12-18T20:00:56.430Z,100123.97
2022-12-18T20:04:59.979Z,100126.88
2022-12-18T20:09:05.532Z,100130.25
2022-12-18T20:13:07.849Z,100128.72
2022-12-18T20:17:10.274Z,100132.22
2022-12-18T20:21:14.175Z,100131.03
2022-12-18T20:25:18.186Z,100127.59
2022-12-18T20:29:20.522Z,100131.31
2022-12-18T20:33:22.562Z,100125.59
2022-12-18T20:37:24.832Z,100129.13
2022-12-18T20:41:31.996Z,100131.16
2022-12-18T20:45:40.762Z,100128.72
2022-12-18T20:49:45.753Z,100131.53
2022-12-18T20:53:49.026Z,100132.44
2022-12-18T20:57:52.823Z,100129.19
2022-12-18T21:01:55.678Z,100140.00
2022-12-18T21:05:58.209Z,100141.44
2022-12-18T21:10:00.333Z,100135.88
2022-12-18T21:14:23.214Z,100139.31
2022-12-18T21:18:25.361Z,100145.59
2022-12-18T21:22:29.137Z,100131.84
2022-12-18T21:26:32.091Z,100153.75
2022-12-18T21:30:34.381Z,100156.38
2022-12-18T21:34:37.244Z,100156.31
2022-12-18T21:38:39.371Z,100161.63
2022-12-18T21:43:00.167Z,100166.31
2022-12-18T21:47:13.806Z,100163.06
2022-12-18T21:51:24.573Z,100159.13
2022-12-18T21:55:26.969Z,100160.94
2022-12-18T21:59:30.727Z,100164.69
2022-12-18T22:03:33.126Z,100162.88
2022-12-18T22:07:35.310Z,100164.94
2022-12-18T22:11:37.898Z,100166.56
2022-12-18T22:15:40.061Z,100171.13
2022-12-18T22:19:43.213Z,100173.09
2022-12-18T22:23:53.258Z,100183.47
2022-12-18T22:28:13.897Z,100181.41
2022-12-18T22:32:22.240Z,100180.28
2022-12-18T22:36:59.401Z,100179.16
2022-12-18T22:41:01.526Z,100187.47
2022-12-18T22:45:03.769Z,100183.72
2022-12-18T22:49:06.621Z,100182.41
2022-12-18T22:53:09.236Z,100192.44
2022-12-18T22:57:11.480Z,100199.63
2022-12-18T23:01:25.763Z,100187.19
2022-12-18T23:05:29.770Z,100190.81
2022-12-18T23:09:32.536Z,100192.28
2022-12-18T23:13:34.951Z,100189.72
2022-12-18T23:17:37.048Z,100193.34
2022-12-18T23:21:39.478Z,100191.91
2022-12-18T23:25:41.689Z,100183.19
2022-12-18T23:29:43.909Z,100179.28
2022-12-18T23:33:48.778Z,100178.69
2022-12-18T23:38:00.127Z,100181.03
2022-12-18T23:42:02.904Z,100168.19
2022-12-18T23:46:19.603Z,100169.38
2022-12-18T23:50:25.458Z,100167.38
2022-12-18T23:54:33.283Z,100182.06
2022-12-18T23:58:37.917Z,100170.41
